createdAt,value
2024-03-16T00:00:46.096Z,100887.00
2024-03-16T00:03:13.980Z,100893.44
2024-03-16T00:05:41.986Z,100900.59
2024-03-16T00:08:09.915Z,100896.03
2024-03-16T00:10:37.937Z,100896.31
2024-03-16T00:13:08.043Z,100902.72
2024-03-16T00:15:36.084Z,100909.03
2024-03-16T00:18:04.372Z,100915.16
2024-03-16T00:20:32.522Z,100909.03
2024-03-16T00:23:00.444Z,100920.03
2024-03-16T00:25:28.297Z,100923.22
2024-03-16T00:27:56.976Z,100917.06
2024-03-16T00:30:25.393Z,100920.75
2024-03-16T00:32:55.732Z,100931.38
2024-03-16T00:35:23.752Z,100924.31
2024-03-16T00:37:51.860Z,100935.34
2024-03-16T00:40:20.728Z,100928.50
2024-03-16T00:42:48.905Z,100929.22
2024-03-16T00:45:16.898Z,100931.22
2024-03-16T00:47:45.185Z,100929.50
2024-03-16T00:50:15.691Z,100939.06
2024-03-16T00:52:43.999Z,100942.06
2024-03-16T00:55:12.324Z,100951.31
2024-03-16T00:57:40.331Z,100948.41
2024-03-16T01:00:11.155Z,100957.38
2024-03-16T01:02:40.595Z,100956.84
2024-03-16T01:05:09.466Z,100963.53
2024-03-16T01:07:37.431Z,100972.03
2024-03-16T01:10:05.586Z,100982.31
2024-03-16T01:12:35.040Z,100989.47
2024-03-16T01:15:03.046Z,100994.44
2024-03-16T01:17:30.932Z,101002.00
2024-03-16T01:19:58.829Z,101001.00
2024-03-16T01:22:26.694Z,101003.44
2024-03-16T01:24:54.667Z,101007.75
2024-03-16T01:27:22.546Z,101016.88
2024-03-16T01:29:50.420Z,101026.69
2024-03-16T01:32:18.409Z,101035.94
2024-03-16T01:34:46.307Z,101037.28
2024-03-16T01:37:15.186Z,101048.00
2024-03-16T01:39:43.173Z,101047.28
2024-03-16T01:42:11.046Z,101056.41
2024-03-16T01:44:38.899Z,101069.09
2024-03-16T01:47:07.197Z,101069.00
2024-03-16T01:49:35.063Z,101072.22
2024-03-16T01:52:04.624Z,101068.16
2024-03-16T01:54:33.066Z,101067.34
2024-03-16T01:57:00.957Z,101076.84
2024-03-16T01:59:28.905Z,101081.56
2024-03-16T02:01:56.891Z,101081.31
2024-03-16T02:04:25.071Z,101076.13
2024-03-16T02:06:53.726Z,101082.53
2024-03-16T02:09:22.401Z,101091.03
2024-03-16T02:11:51.069Z,101100.13
2024-03-16T02:14:18.961Z,101098.03
2024-03-16T02:16:46.947Z,101102.97
2024-03-16T02:19:14.886Z,101100.63
2024-03-16T02:21:42.801Z,101108.88
2024-03-16T02:24:10.702Z,101114.78
2024-03-16T02:26:38.529Z,101109.97
2024-03-16T02:29:06.854Z,101106.16
2024-03-16T02:31:34.928Z,101115.28
2024-03-16T02:34:03.998Z,101116.25
2024-03-16T02:36:32.127Z,101126.13
2024-03-16T02:39:00.086Z,101110.97
2024-03-16T02:41:28.038Z,101122.28
2024-03-16T02:43:55.935Z,101122.28
2024-03-16T02:46:23.848Z,101128.34
2024-03-16T02:48:51.762Z,101136.72
2024-03-16T02:51:19.683Z,101142.34
2024-03-16T02:53:47.519Z,101153.78
2024-03-16T02:56:15.373Z,101165.00
2024-03-16T02:58:43.230Z,101168.81
2024-03-16T03:01:11.161Z,101171.38
2024-03-16T03:03:39.200Z,101173.09
2024-03-16T03:06:07.247Z,101179.75
2024-03-16T03:08:35.181Z,101185.75
2024-03-16T03:11:05.133Z,101192.16
2024-03-16T03:13:33.100Z,101196.97
2024-03-16T03:16:01.010Z,101197.41
2024-03-16T03:18:28.956Z,101202.13
2024-03-16T03:20:56.833Z,101202.13
2024-03-16T03:23:24.666Z,101207.28
2024-03-16T03:25:52.562Z,101209.97
2024-03-16T03:28:20.455Z,101221.78
2024-03-16T03:30:50.295Z,101226.75
2024-03-16T03:33:18.305Z,101227.47
2024-03-16T03:35:46.164Z,101235.38
2024-03-16T03:38:14.035Z,101242.84
2024-03-16T03:40:42.453Z,101245.91
2024-03-16T03:43:18.573Z,101252.72
2024-03-16T03:45:51.971Z,101247.88
2024-03-16T03:48:42.107Z,101249.72
2024-03-16T03:51:10.093Z,101261.03
2024-03-16T03:53:38.039Z,101264.19
2024-03-16T03:56:06.105Z,101263.31
2024-03-16T03:58:33.996Z,101274.41
2024-03-16T04:01:02.033Z,101280.66
2024-03-16T04:03:30.015Z,101283.50
2024-03-16T04:05:57.920Z,101292.13
2024-03-16T04:08:25.794Z,101296.84
2024-03-16T04:10:53.699Z,101307.50
2024-03-16T04:13:21.822Z,101309.09
2024-03-16T04:15:50.475Z,101319.03
2024-03-16T04:18:17.415Z,101315.84
2024-03-16T04:20:45.298Z,101321.03
2024-03-16T04:23:13.640Z,101331.50
2024-03-16T04:25:41.488Z,101330.41
2024-03-16T04:28:10.803Z,101327.81
2024-03-16T04:30:38.736Z,101343.19
2024-03-16T04:33:08.380Z,101351.66
2024-03-16T04:35:36.330Z,101346.25
2024-03-16T04:38:04.226Z,101347.22
2024-03-16T04:40:32.194Z,101347.75
2024-03-16T04:43:00.078Z,101357.56
2024-03-16T04:45:28.142Z,101360.06
2024-03-16T04:47:56.090Z,101360.41
2024-03-16T04:50:25.367Z,101368.41
2024-03-16T04:52:53.205Z,101374.56
2024-03-16T04:55:21.160Z,101379.22
2024-03-16T04:57:49.054Z,101386.50
2024-03-16T05:00:16.963Z,101397.31
2024-03-16T05:02:44.839Z,101399.06
2024-03-16T05:05:12.725Z,101405.78
2024-03-16T05:07:40.639Z,101415.50
2024-03-16T05:10:09.963Z,101419.53
2024-03-16T05:12:38.120Z,101434.56
2024-03-16T05:15:06.799Z,101436.69
2024-03-16T05:17:34.832Z,101441.50
2024-03-16T05:20:02.750Z,101443.66
2024-03-16T05:22:31.129Z,101456.41
2024-03-16T05:24:59.061Z,101459.56
2024-03-16T05:27:28.503Z,101464.97
2024-03-16T05:29:57.146Z,101470.91
2024-03-16T05:32:25.360Z,101470.38
2024-03-16T05:34:53.356Z,101475.44
2024-03-16T05:37:21.276Z,101489.28
2024-03-16T05:39:49.401Z,101491.34
2024-03-16T05:42:17.336Z,101493.28
2024-03-16T05:44:45.181Z,101497.06
2024-03-16T05:47:13.038Z,101512.06
2024-03-16T05:49:41.481Z,101520.00
2024-03-16T05:52:09.405Z,101520.00
2024-03-16T05:54:37.344Z,101531.47
2024-03-16T05:57:05.548Z,101541.19
2024-03-16T05:59:34.790Z,101551.22
2024-03-16T06:02:02.777Z,101556.09
2024-03-16T06:04:30.704Z,101558.78
2024-03-16T06:06:58.626Z,101555.03
2024-03-16T06:09:26.616Z,101570.03
2024-03-16T06:11:54.508Z,101578.72
2024-03-16T06:14:22.504Z,101579.47
2024-03-16T06:16:50.362Z,101584.78
2024-03-16T06:19:18.243Z,101592.97
2024-03-16T06:21:46.687Z,101600.34
2024-03-16T06:24:14.946Z,101606.06
2024-03-16T06:26:50.005Z,101610.16
2024-03-16T06:29:19.294Z,101610.94
2024-03-16T06:31:49.385Z,101618.94
2024-03-16T06:34:17.396Z,101626.06
2024-03-16T06:36:45.385Z,101631.03
2024-03-16T06:39:13.362Z,101631.69
2024-03-16T06:41:41.308Z,101633.81
2024-03-16T06:44:09.189Z,101641.63
2024-03-16T06:46:37.079Z,101647.59
2024-03-16T06:49:07.793Z,101652.59
2024-03-16T06:51:36.694Z,101659.31
2024-03-16T06:54:07.855Z,101668.84
2024-03-16T06:56:35.715Z,101678.34
2024-03-16T06:59:03.678Z,101688.09
2024-03-16T07:01:31.751Z,101692.34
2024-03-16T07:03:59.793Z,101705.75
2024-03-16T07:06:27.751Z,101718.84
2024-03-16T07:08:57.431Z,101712.00
2024-03-16T07:11:25.411Z,101714.44
2024-03-16T07:13:55.067Z,101731.25
2024-03-16T07:16:23.362Z,101735.03
2024-03-16T07:18:51.404Z,101727.59
2024-03-16T07:21:20.708Z,101735.41
2024-03-16T07:23:49.797Z,101740.31
2024-03-16T07:26:17.731Z,101741.88
2024-03-16T07:28:45.569Z,101751.22
2024-03-16T07:31:14.205Z,101757.53
2024-03-16T07:33:42.227Z,101763.78
2024-03-16T07:36:10.644Z,101771.78
2024-03-16T07:38:38.604Z,101776.50
2024-03-16T07:41:06.468Z,101768.88
2024-03-16T07:43:34.302Z,101773.47
2024-03-16T07:46:02.278Z,101779.56
2024-03-16T07:48:30.771Z,101790.47
2024-03-16T07:51:01.986Z,101793.28
2024-03-16T07:53:29.914Z,101798.41
2024-03-16T07:55:59.231Z,101798.31
2024-03-16T07:58:27.885Z,101800.59
2024-03-16T08:00:55.815Z,101802.50
2024-03-16T08:03:23.702Z,101806.00
2024-03-16T08:05:51.566Z,101812.38
2024-03-16T08:08:19.481Z,101811.72
2024-03-16T08:10:47.399Z,101829.50
2024-03-16T08:13:15.354Z,101834.69
2024-03-16T08:15:43.249Z,101835.16
2024-03-16T08:18:12.509Z,101841.13
2024-03-16T08:20:40.538Z,101853.09
2024-03-16T08:23:08.416Z,101848.34
2024-03-16T08:25:36.265Z,101854.81
2024-03-16T08:28:04.304Z,101850.97
2024-03-16T08:30:32.247Z,101855.00
2024-03-16T08:33:00.276Z,101852.56
2024-03-16T08:35:28.224Z,101847.63
2024-03-16T08:37:56.142Z,101856.28
2024-03-16T08:40:24.063Z,101863.88
2024-03-16T08:42:52.819Z,101859.00
2024-03-16T08:45:20.874Z,101852.31
2024-03-16T08:47:48.777Z,101863.38
2024-03-16T08:50:16.698Z,101860.88
2024-03-16T08:52:44.748Z,101870.63
2024-03-16T08:55:14.594Z,101892.50
2024-03-16T08:57:43.135Z,101891.28
2024-03-16T09:00:14.644Z,101901.47
2024-03-16T09:02:42.588Z,101904.28
2024-03-16T09:05:10.486Z,101908.72
2024-03-16T09:07:39.679Z,101913.38
2024-03-16T09:10:08.507Z,101918.44
2024-03-16T09:12:36.901Z,101924.53
2024-03-16T09:15:06.599Z,101933.66
2024-03-16T09:17:35.192Z,101947.50
2024-03-16T09:20:08.862Z,101954.16
2024-03-16T09:22:37.745Z,101946.31
2024-03-16T09:25:07.055Z,101956.72
2024-03-16T09:27:35.488Z,101961.84
2024-03-16T09:30:06.091Z,101961.84
2024-03-16T09:32:33.980Z,101957.16
2024-03-16T09:35:01.924Z,101969.00
2024-03-16T09:37:29.844Z,101966.16
2024-03-16T09:39:58.399Z,101978.41
2024-03-16T09:42:26.337Z,101977.06
